sensor_id;sensor_type;location;lat;lon;timestamp;pressure;altitude;pressure_sealevel;temperature;humidity
85476;BME280;75880;41.476;22.164;2024-01-25T00:01:33;101069.81;;;-0.50;90.25
85476;BME280;75880;41.476;22.164;2024-01-25T00:03:59;101078.19;;;-0.47;90.86
85476;BME280;75880;41.476;22.164;2024-01-25T00:06:24;101080.97;;;-0.42;89.37
85476;BME280;75880;41.476;22.164;2024-01-25T00:08:50;101087.09;;;-0.46;89.60
85476;BME280;75880;41.476;22.164;2024-01-25T00:11:19;101094.06;;;-0.45;90.02
85476;BME280;75880;41.476;22.164;2024-01-25T00:13:45;101102.28;;;-0.35;88.28
85476;BME280;75880;41.476;22.164;2024-01-25T00:16:11;101100.34;;;-0.40;89.81
85476;BME280;75880;41.476;22.164;2024-01-25T00:18:36;101086.25;;;-0.47;89.10
85476;BME280;75880;41.476;22.164;2024-01-25T00:21:02;101086.56;;;-0.43;88.95
85476;BME280;75880;41.476;22.164;2024-01-25T00:23:27;101089.34;;;-0.55;89.58
85476;BME280;75880;41.476;22.164;2024-01-25T00:25:53;101086.19;;;-0.52;89.65
85476;BME280;75880;41.476;22.164;2024-01-25T00:28:21;101100.66;;;-0.53;90.31
85476;BME280;75880;41.476;22.164;2024-01-25T00:30:47;101109.66;;;-0.47;89.93
85476;BME280;75880;41.476;22.164;2024-01-25T00:33:12;101102.47;;;-0.58;90.82
85476;BME280;75880;41.476;22.164;2024-01-25T00:35:38;101112.97;;;-0.57;90.41
85476;BME280;75880;41.476;22.164;2024-01-25T00:38:04;101116.09;;;-0.48;91.54
85476;BME280;75880;41.476;22.164;2024-01-25T00:40:29;101117.53;;;-0.41;90.87
85476;BME280;75880;41.476;22.164;2024-01-25T00:42:55;101096.25;;;-0.42;91.43
85476;BME280;75880;41.476;22.164;2024-01-25T00:45:24;101104.66;;;-0.39;91.06
85476;BME280;75880;41.476;22.164;2024-01-25T00:47:50;101096.91;;;-0.35;91.41
85476;BME280;75880;41.476;22.164;2024-01-25T00:50:16;101099.59;;;-0.35;91.41
85476;BME280;75880;41.476;22.164;2024-01-25T00:52:45;101091.38;;;-0.29;90.51
85476;BME280;75880;41.476;22.164;2024-01-25T00:55:12;101079.88;;;-0.24;91.27
85476;BME280;75880;41.476;22.164;2024-01-25T00:57:38;101067.31;;;-0.19;91.09
85476;BME280;75880;41.476;22.164;2024-01-25T01:00:04;101059.56;;;-0.15;90.63
85476;BME280;75880;41.476;22.164;2024-01-25T01:02:35;101056.94;;;-0.10;90.17
85476;BME280;75880;41.476;22.164;2024-01-25T01:05:01;101070.09;;;-0.09;90.19
85476;BME280;75880;41.476;22.164;2024-01-25T01:07:27;101088.00;;;0.02;89.86
85476;BME280;75880;41.476;22.164;2024-01-25T01:09:52;101069.66;;;-0.01;90.48
85476;BME280;75880;41.476;22.164;2024-01-25T01:12:18;101075.63;;;0.01;90.84
85476;BME280;75880;41.476;22.164;2024-01-25T01:14:44;101065.88;;;-0.05;90.24
85476;BME280;75880;41.476;22.164;2024-01-25T01:17:09;101068.63;;;0.00;89.99
85476;BME280;75880;41.476;22.164;2024-01-25T01:19:35;101059.75;;;-0.01;90.22
85476;BME280;75880;41.476;22.164;2024-01-25T01:22:00;101085.88;;;0.04;89.54
85476;BME280;75880;41.476;22.164;2024-01-25T01:24:26;101071.88;;;0.02;90.15
85476;BME280;75880;41.476;22.164;2024-01-25T01:26:52;101085.88;;;0.04;89.18
85476;BME280;75880;41.476;22.164;2024-01-25T01:29:18;101086.44;;;0.06;89.30
85476;BME280;75880;41.476;22.164;2024-01-25T01:31:44;101088.13;;;0.12;89.33
85476;BME280;75880;41.476;22.164;2024-01-25T01:34:10;101084.38;;;0.13;90.34
85476;BME280;75880;41.476;22.164;2024-01-25T01:36:38;101085.50;;;0.17;89.59
85476;BME280;75880;41.476;22.164;2024-01-25T01:39:03;101073.31;;;0.09;90.15
85476;BME280;75880;41.476;22.164;2024-01-25T01:41:29;101075.22;;;0.14;90.16
85476;BME280;75880;41.476;22.164;2024-01-25T01:43:55;101063.41;;;0.15;90.20
85476;BME280;75880;41.476;22.164;2024-01-25T01:46:32;101054.63;;;0.19;88.85
85476;BME280;75880;41.476;22.164;2024-01-25T01:49:00;101047.09;;;0.21;89.02
85476;BME280;75880;41.476;22.164;2024-01-25T01:51:26;101046.88;;;0.28;88.61
85476;BME280;75880;41.476;22.164;2024-01-25T01:53:53;101039.94;;;0.32;89.05
85476;BME280;75880;41.476;22.164;2024-01-25T01:56:21;101048.34;;;0.40;89.38
85476;BME280;75880;41.476;22.164;2024-01-25T01:58:48;101052.72;;;0.46;88.48
85476;BME280;75880;41.476;22.164;2024-01-25T02:01:14;101042.50;;;0.43;88.92
85476;BME280;75880;41.476;22.164;2024-01-25T02:03:40;101050.88;;;0.47;88.78
85476;BME280;75880;41.476;22.164;2024-01-25T02:06:06;101051.88;;;0.41;89.54
85476;BME280;75880;41.476;22.164;2024-01-25T02:08:32;101051.63;;;0.42;89.05
85476;BME280;75880;41.476;22.164;2024-01-25T02:10:58;101046.25;;;0.42;88.83
85476;BME280;75880;41.476;22.164;2024-01-25T02:13:24;101057.31;;;0.46;88.91
85476;BME280;75880;41.476;22.164;2024-01-25T02:15:49;101072.34;;;0.42;88.78
85476;BME280;75880;41.476;22.164;2024-01-25T02:18:15;101061.50;;;0.37;89.69
85476;BME280;75880;41.476;22.164;2024-01-25T02:20:40;101063.19;;;0.43;89.30
85476;BME280;75880;41.476;22.164;2024-01-25T02:23:06;101045.13;;;0.38;88.41
85476;BME280;75880;41.476;22.164;2024-01-25T02:25:32;101044.41;;;0.48;88.78
85476;BME280;75880;41.476;22.164;2024-01-25T02:27:58;101045.53;;;0.52;88.84
85476;BME280;75880;41.476;22.164;2024-01-25T02:30:23;101025.53;;;0.43;87.83
85476;BME280;75880;41.476;22.164;2024-01-25T02:32:49;101050.88;;;0.47;87.67
85476;BME280;75880;41.476;22.164;2024-01-25T02:35:15;101068.19;;;0.56;88.38
85476;BME280;75880;41.476;22.164;2024-01-25T02:37:40;101061.19;;;0.55;89.04
85476;BME280;75880;41.476;22.164;2024-01-25T02:40:07;101065.56;;;0.61;88.62
85476;BME280;75880;41.476;22.164;2024-01-25T02:42:32;101049.66;;;0.59;88.08
85476;BME280;75880;41.476;22.164;2024-01-25T02:44:58;101058.28;;;0.61;88.73
85476;BME280;75880;41.476;22.164;2024-01-25T02:47:24;101057.25;;;0.67;88.92
85476;BME280;75880;41.476;22.164;2024-01-25T02:49:49;101047.75;;;0.60;89.48
85476;BME280;75880;41.476;22.164;2024-01-25T02:52:15;101058.72;;;0.53;89.52
85476;BME280;75880;41.476;22.164;2024-01-25T02:54:41;101058.94;;;0.47;89.46
85476;BME280;75880;41.476;22.164;2024-01-25T02:57:06;101054.03;;;0.44;89.69
85476;BME280;75880;41.476;22.164;2024-01-25T02:59:32;101060.81;;;0.46;90.43
85476;BME280;75880;41.476;22.164;2024-01-25T03:01:58;101069.19;;;0.50;89.84
85476;BME280;75880;41.476;22.164;2024-01-25T03:04:23;101063.31;;;0.53;90.63
85476;BME280;75880;41.476;22.164;2024-01-25T03:06:49;101042.78;;;0.47;90.05
85476;BME280;75880;41.476;22.164;2024-01-25T03:09:17;101014.75;;;0.43;89.97
85476;BME280;75880;41.476;22.164;2024-01-25T03:11:43;101013.06;;;0.37;89.95
85476;BME280;75880;41.476;22.164;2024-01-25T03:14:09;101033.34;;;0.44;90.18
85476;BME280;75880;41.476;22.164;2024-01-25T03:16:35;101015.28;;;0.40;90.51
85476;BME280;75880;41.476;22.164;2024-01-25T03:19:00;101022.28;;;0.41;90.29
85476;BME280;75880;41.476;22.164;2024-01-25T03:21:26;101001.56;;;0.41;89.45
85476;BME280;75880;41.476;22.164;2024-01-25T03:23:51;101000.69;;;0.36;90.92
85476;BME280;75880;41.476;22.164;2024-01-25T03:26:17;101002.91;;;0.39;90.22
85476;BME280;75880;41.476;22.164;2024-01-25T03:28:43;101020.66;;;0.40;90.52
85476;BME280;75880;41.476;22.164;2024-01-25T03:31:08;100998.00;;;0.36;90.21
85476;BME280;75880;41.476;22.164;2024-01-25T03:33:34;100996.69;;;0.38;89.90
85476;BME280;75880;41.476;22.164;2024-01-25T03:36:04;100995.31;;;0.36;89.55
85476;BME280;75880;41.476;22.164;2024-01-25T03:38:30;101006.06;;;0.36;90.33
85476;BME280;75880;41.476;22.164;2024-01-25T03:40:55;100998.28;;;0.34;90.46
85476;BME280;75880;41.476;22.164;2024-01-25T03:43:24;101016.84;;;0.36;89.29
85476;BME280;75880;41.476;22.164;2024-01-25T03:45:49;101004.91;;;0.27;90.53
85476;BME280;75880;41.476;22.164;2024-01-25T03:48:15;101017.66;;;0.36;89.82
85476;BME280;75880;41.476;22.164;2024-01-25T03:50:41;101022.28;;;0.41;89.39
85476;BME280;75880;41.476;22.164;2024-01-25T03:53:07;101012.63;;;0.45;90.01
85476;BME280;75880;41.476;22.164;2024-01-25T03:55:32;101022.06;;;0.47;89.79
85476;BME280;75880;41.476;22.164;2024-01-25T03:57:58;101025.03;;;0.46;89.98
85476;BME280;75880;41.476;22.164;2024-01-25T04:00:24;101022.81;;;0.43;89.28
85476;BME280;75880;41.476;22.164;2024-01-25T04:02:50;101028.56;;;0.51;89.13
85476;BME280;75880;41.476;22.164;2024-01-25T04:05:15;101022.06;;;0.47;89.55
85476;BME280;75880;41.476;22.164;2024-01-25T04:07:41;101015.06;;;0.46;89.94
85476;BME280;75880;41.476;22.164;2024-01-25T04:10:07;101026.38;;;0.48;90.03
85476;BME280;75880;41.476;22.164;2024-01-25T04:12:33;101036.03;;;0.44;89.29
85476;BME280;75880;41.476;22.164;2024-01-25T04:14:59;101050.66;;;0.53;89.59
85476;BME280;75880;41.476;22.164;2024-01-25T04:17:24;101046.59;;;0.51;89.74
85476;BME280;75880;41.476;22.164;2024-01-25T04:19:51;101039.03;;;0.48;89.68
85476;BME280;75880;41.476;22.164;2024-01-25T04:22:16;101029.84;;;0.44;90.40
85476;BME280;75880;41.476;22.164;2024-01-25T04:24:42;101033.25;;;0.34;90.71
85476;BME280;75880;41.476;22.164;2024-01-25T04:27:10;101028.59;;;0.30;90.08
85476;BME280;75880;41.476;22.164;2024-01-25T04:29:40;101033.94;;;0.25;91.01
85476;BME280;75880;41.476;22.164;2024-01-25T04:32:07;101015.81;;;0.15;91.45
85476;BME280;75880;41.476;22.164;2024-01-25T04:34:33;101015.75;;;0.10;91.90
85476;BME280;75880;41.476;22.164;2024-01-25T04:36:59;101026.81;;;0.14;91.93
85476;BME280;75880;41.476;22.164;2024-01-25T04:39:27;101014.41;;;0.08;91.67
85476;BME280;75880;41.476;22.164;2024-01-25T04:41:53;101012.19;;;0.05;91.83
85476;BME280;75880;41.476;22.164;2024-01-25T04:44:18;101023.78;;;0.05;91.32
85476;BME280;75880;41.476;22.164;2024-01-25T04:46:44;101022.41;;;0.03;92.72
85476;BME280;75880;41.476;22.164;2024-01-25T04:49:10;101048.22;;;0.04;92.36
85476;BME280;75880;41.476;22.164;2024-01-25T04:51:35;101047.59;;;-0.03;92.84
85476;BME280;75880;41.476;22.164;2024-01-25T04:54:04;101049.31;;;0.03;92.95
85476;BME280;75880;41.476;22.164;2024-01-25T04:56:31;101050.72;;;0.10;91.88
85476;BME280;75880;41.476;22.164;2024-01-25T04:58:57;101058.00;;;0.10;92.26
85476;BME280;75880;41.476;22.164;2024-01-25T05:01:23;101046.09;;;0.06;92.40
85476;BME280;75880;41.476;22.164;2024-01-25T05:03:49;101039.09;;;0.05;91.99
85476;BME280;75880;41.476;22.164;2024-01-25T05:06:14;101036.84;;;-0.03;92.30
85476;BME280;75880;41.476;22.164;2024-01-25T05:08:42;101034.72;;;-0.01;92.26
85476;BME280;75880;41.476;22.164;2024-01-25T05:11:09;101039.91;;;0.05;91.89
85476;BME280;75880;41.476;22.164;2024-01-25T05:13:34;101049.06;;;0.04;91.80
85476;BME280;75880;41.476;22.164;2024-01-25T05:16:03;101057.91;;;0.05;91.80
85476;BME280;75880;41.476;22.164;2024-01-25T05:18:29;101077.25;;;0.02;92.07
85476;BME280;75880;41.476;22.164;2024-01-25T05:20:54;101076.69;;;0.00;92.66
85476;BME280;75880;41.476;22.164;2024-01-25T05:23:20;101081.06;;;0.06;92.04
85476;BME280;75880;41.476;22.164;2024-01-25T05:25:46;101090.91;;;0.17;91.29
85476;BME280;75880;41.476;22.164;2024-01-25T05:28:11;101079.63;;;0.20;91.25
85476;BME280;75880;41.476;22.164;2024-01-25T05:30:37;101091.88;;;0.32;90.76
85476;BME280;75880;41.476;22.164;2024-01-25T05:33:03;101086.56;;;0.37;90.17
85476;BME280;75880;41.476;22.164;2024-01-25T05:35:29;101077.19;;;0.45;89.66
85476;BME280;75880;41.476;22.164;2024-01-25T05:37:55;101084.56;;;0.54;89.05
85476;BME280;75880;41.476;22.164;2024-01-25T05:40:20;101077.41;;;0.65;88.86
85476;BME280;75880;41.476;22.164;2024-01-25T05:42:46;101092.56;;;0.71;87.67
85476;BME280;75880;41.476;22.164;2024-01-25T05:45:12;101086.63;;;0.69;88.17
85476;BME280;75880;41.476;22.164;2024-01-25T05:47:38;101075.25;;;0.62;88.06
85476;BME280;75880;41.476;22.164;2024-01-25T05:50:05;101087.41;;;0.64;88.46
85476;BME280;75880;41.476;22.164;2024-01-25T05:52:30;101083.56;;;0.60;89.01
85476;BME280;75880;41.476;22.164;2024-01-25T05:54:56;101091.84;;;0.54;90.07
85476;BME280;75880;41.476;22.164;2024-01-25T05:57:22;101083.97;;;0.47;90.26
85476;BME280;75880;41.476;22.164;2024-01-25T05:59:48;101089.84;;;0.44;89.41
85476;BME280;75880;41.476;22.164;2024-01-25T06:02:13;101080.72;;;0.45;91.01
85476;BME280;75880;41.476;22.164;2024-01-25T06:04:39;101082.03;;;0.43;91.03
85476;BME280;75880;41.476;22.164;2024-01-25T06:07:05;101080.41;;;0.42;90.48
85476;BME280;75880;41.476;22.164;2024-01-25T06:09:30;101090.47;;;0.51;90.90
85476;BME280;75880;41.476;22.164;2024-01-25T06:11:57;101081.88;;;0.54;90.40
85476;BME280;75880;41.476;22.164;2024-01-25T06:14:24;101085.16;;;0.56;89.84
85476;BME280;75880;41.476;22.164;2024-01-25T06:16:49;101079.50;;;0.58;90.11
85476;BME280;75880;41.476;22.164;2024-01-25T06:19:15;101094.09;;;0.62;89.99
85476;BME280;75880;41.476;22.164;2024-01-25T06:21:43;101105.94;;;0.61;90.97
85476;BME280;75880;41.476;22.164;2024-01-25T06:24:09;101108.63;;;0.61;90.60
85476;BME280;75880;41.476;22.164;2024-01-25T06:26:35;101130.25;;;0.71;89.67
85476;BME280;75880;41.476;22.164;2024-01-25T06:29:01;101121.66;;;0.74;89.65
85476;BME280;75880;41.476;22.164;2024-01-25T06:31:26;101134.72;;;0.87;90.59
85476;BME280;75880;41.476;22.164;2024-01-25T06:33:52;101117.50;;;0.88;88.76
85476;BME280;75880;41.476;22.164;2024-01-25T06:36:21;101119.72;;;0.96;88.88
85476;BME280;75880;41.476;22.164;2024-01-25T06:38:48;101109.81;;;1.01;88.50
85476;BME280;75880;41.476;22.164;2024-01-25T06:41:14;101123.13;;;1.13;87.75
85476;BME280;75880;41.476;22.164;2024-01-25T06:43:41;101125.91;;;1.23;87.20
85476;BME280;75880;41.476;22.164;2024-01-25T06:46:07;101091.19;;;1.31;86.87
85476;BME280;75880;41.476;22.164;2024-01-25T06:48:33;101083.19;;;1.41;86.59
85476;BME280;75880;41.476;22.164;2024-01-25T06:50:59;101091.34;;;1.51;86.99
85476;BME280;75880;41.476;22.164;2024-01-25T06:53:26;101096.59;;;1.68;86.55
85476;BME280;75880;41.476;22.164;2024-01-25T06:55:52;101086.94;;;1.77;85.09
85476;BME280;75880;41.476;22.164;2024-01-25T06:58:17;101100.47;;;1.82;85.89
85476;BME280;75880;41.476;22.164;2024-01-25T07:00:43;101101.03;;;1.89;84.31
85476;BME280;75880;41.476;22.164;2024-01-25T07:03:12;101106.19;;;1.95;86.03
85476;BME280;75880;41.476;22.164;2024-01-25T07:05:38;101099.38;;;1.88;86.45
85476;BME280;75880;41.476;22.164;2024-01-25T07:08:04;101098.28;;;1.84;85.15
85476;BME280;75880;41.476;22.164;2024-01-25T07:10:30;101135.84;;;1.95;84.63
85476;BME280;75880;41.476;22.164;2024-01-25T07:12:56;101129.38;;;1.96;85.76
85476;BME280;75880;41.476;22.164;2024-01-25T07:15:21;101123.41;;;1.89;85.47
85476;BME280;75880;41.476;22.164;2024-01-25T07:17:47;101129.63;;;1.95;85.88
85476;BME280;75880;41.476;22.164;2024-01-25T07:20:13;101136.19;;;2.09;85.03
85476;BME280;75880;41.476;22.164;2024-01-25T07:22:39;101138.88;;;2.04;85.60
85476;BME280;75880;41.476;22.164;2024-01-25T07:25:05;101128.59;;;2.01;85.12
85476;BME280;75880;41.476;22.164;2024-01-25T07:27:31;101112.91;;;1.93;85.66
85476;BME280;75880;41.476;22.164;2024-01-25T07:30:00;101107.00;;;1.96;86.05
85476;BME280;75880;41.476;22.164;2024-01-25T07:32:25;101108.63;;;1.97;86.55
85476;BME280;75880;41.476;22.164;2024-01-25T07:34:52;101106.44;;;1.94;85.96
85476;BME280;75880;41.476;22.164;2024-01-25T07:37:18;101095.63;;;1.89;85.61
85476;BME280;75880;41.476;22.164;2024-01-25T07:39:44;101090.53;;;1.92;86.91
85476;BME280;75880;41.476;22.164;2024-01-25T07:42:10;101112.13;;;1.92;86.36
85476;BME280;75880;41.476;22.164;2024-01-25T07:44:36;101112.91;;;1.93;86.76
85476;BME280;75880;41.476;22.164;2024-01-25T07:47:02;101093.53;;;1.96;85.80
85476;BME280;75880;41.476;22.164;2024-01-25T07:49:28;101108.41;;;2.08;86.18
85476;BME280;75880;41.476;22.164;2024-01-25T07:51:54;101102.50;;;2.16;85.01
85476;BME280;75880;41.476;22.164;2024-01-25T07:54:22;101109.81;;;2.21;85.33
85476;BME280;75880;41.476;22.164;2024-01-25T07:56:48;101110.91;;;2.25;84.58
85476;BME280;75880;41.476;22.164;2024-01-25T07:59:13;101094.69;;;2.25;85.14
85476;BME280;75880;41.476;22.164;2024-01-25T08:01:39;101096.38;;;2.36;84.24
85476;BME280;75880;41.476;22.164;2024-01-25T08:04:05;101080.75;;;2.43;83.56
85476;BME280;75880;41.476;22.164;2024-01-25T08:06:31;101094.25;;;2.48;82.99
85476;BME280;75880;41.476;22.164;2024-01-25T08:08:56;101077.03;;;2.64;82.90
85476;BME280;75880;41.476;22.164;2024-01-25T08:11:22;101095.69;;;2.75;81.85
85476;BME280;75880;41.476;22.164;2024-01-25T08:13:48;101089.44;;;2.70;82.44
85476;BME280;75880;41.476;22.164;2024-01-25T08:16:14;101083.53;;;2.73;83.38
85476;BME280;75880;41.476;22.164;2024-01-25T08:18:45;101069.47;;;2.76;81.51
85476;BME280;75880;41.476;22.164;2024-01-25T08:21:12;101073.25;;;2.80;82.14
85476;BME280;75880;41.476;22.164;2024-01-25T08:23:37;101070.00;;;2.83;80.16
85476;BME280;75880;41.476;22.164;2024-01-25T08:26:05;101078.69;;;2.95;80.46
85476;BME280;75880;41.476;22.164;2024-01-25T08:28:30;101081.09;;;2.96;80.93
85476;BME280;75880;41.476;22.164;2024-01-25T08:30:56;101080.28;;;2.91;80.50
85476;BME280;75880;41.476;22.164;2024-01-25T08:33:22;101083.28;;;2.94;80.31
85476;BME280;75880;41.476;22.164;2024-01-25T08:35:50;101095.72;;;3.15;79.94
85476;BME280;75880;41.476;22.164;2024-01-25T08:38:16;101097.88;;;3.23;79.24
85476;BME280;75880;41.476;22.164;2024-01-25T08:40:42;101098.16;;;3.22;79.33
85476;BME280;75880;41.476;22.164;2024-01-25T08:43:07;101106.81;;;3.19;79.52
85476;BME280;75880;41.476;22.164;2024-01-25T08:45:33;101096.25;;;3.27;78.55
85476;BME280;75880;41.476;22.164;2024-01-25T08:47:59;101098.41;;;3.30;78.62
85476;BME280;75880;41.476;22.164;2024-01-25T08:50:25;101108.44;;;3.40;79.05
85476;BME280;75880;41.476;22.164;2024-01-25T08:52:51;101094.34;;;3.43;77.79
85476;BME280;75880;41.476;22.164;2024-01-25T08:55:16;101088.41;;;3.41;77.62
85476;BME280;75880;41.476;22.164;2024-01-25T08:57:42;101068.94;;;3.29;77.89
85476;BME280;75880;41.476;22.164;2024-01-25T09:00:08;101073.56;;;3.28;78.43
85476;BME280;75880;41.476;22.164;2024-01-25T09:02:36;101074.88;;;3.31;78.92
85476;BME280;75880;41.476;22.164;2024-01-25T09:05:03;101073.53;;;3.48;79.15
85476;BME280;75880;41.476;22.164;2024-01-25T09:07:29;101078.41;;;3.51;77.71
85476;BME280;75880;41.476;22.164;2024-01-25T09:09:54;101082.69;;;3.57;78.77
85476;BME280;75880;41.476;22.164;2024-01-25T09:12:20;101069.44;;;3.66;78.59
85476;BME280;75880;41.476;22.164;2024-01-25T09:14:46;101076.41;;;3.86;77.54
85476;BME280;75880;41.476;22.164;2024-01-25T09:17:11;101079.66;;;3.88;77.17
85476;BME280;75880;41.476;22.164;2024-01-25T09:19:37;101079.91;;;3.87;77.60
85476;BME280;75880;41.476;22.164;2024-01-25T09:22:02;101091.00;;;3.95;77.43
85476;BME280;75880;41.476;22.164;2024-01-25T09:24:33;101100.44;;;4.08;76.02
85476;BME280;75880;41.476;22.164;2024-01-25T09:27:02;101089.91;;;4.01;76.09
85476;BME280;75880;41.476;22.164;2024-01-25T09:29:27;101089.88;;;4.11;76.77
85476;BME280;75880;41.476;22.164;2024-01-25T09:31:53;101089.59;;;4.18;75.84
85476;BME280;75880;41.476;22.164;2024-01-25T09:34:19;101073.34;;;4.18;75.82
85476;BME280;75880;41.476;22.164;2024-01-25T09:36:46;101064.13;;;4.19;75.61
85476;BME280;75880;41.476;22.164;2024-01-25T09:39:12;101070.31;;;4.29;74.46
85476;BME280;75880;41.476;22.164;2024-01-25T09:41:37;101060.84;;;4.27;73.45
85476;BME280;75880;41.476;22.164;2024-01-25T09:44:03;101064.66;;;4.26;73.84
85476;BME280;75880;41.476;22.164;2024-01-25T09:46:29;101074.63;;;4.30;73.75
85476;BME280;75880;41.476;22.164;2024-01-25T09:48:56;101063.75;;;4.35;74.38
85476;BME280;75880;41.476;22.164;2024-01-25T09:51:22;101070.16;;;4.59;73.46
85476;BME280;75880;41.476;22.164;2024-01-25T09:53:49;101062.44;;;4.76;71.89
85476;BME280;75880;41.476;22.164;2024-01-25T09:56:15;101059.94;;;4.85;71.67
85476;BME280;75880;41.476;22.164;2024-01-25T09:58:43;101057.47;;;4.88;72.20
85476;BME280;75880;41.476;22.164;2024-01-25T10:01:13;101054.00;;;4.83;72.56
85476;BME280;75880;41.476;22.164;2024-01-25T10:03:42;101062.63;;;4.90;73.11
85476;BME280;75880;41.476;22.164;2024-01-25T10:06:10;101049.31;;;4.93;71.89
85476;BME280;75880;41.476;22.164;2024-01-25T10:08:36;101041.19;;;4.93;71.65
85476;BME280;75880;41.476;22.164;2024-01-25T10:11:02;101047.13;;;4.95;71.13
85476;BME280;75880;41.476;22.164;2024-01-25T10:13:28;101030.91;;;4.90;70.38
85476;BME280;75880;41.476;22.164;2024-01-25T10:15:55;101032.81;;;4.85;71.17
85476;BME280;75880;41.476;22.164;2024-01-25T10:18:27;101011.81;;;4.72;72.46
85476;BME280;75880;41.476;22.164;2024-01-25T10:20:53;101016.91;;;4.73;71.37
85476;BME280;75880;41.476;22.164;2024-01-25T10:23:20;101010.97;;;4.71;71.83
85476;BME280;75880;41.476;22.164;2024-01-25T10:25:47;101007.16;;;4.77;71.96
85476;BME280;75880;41.476;22.164;2024-01-25T10:28:12;100999.13;;;4.62;73.68
85476;BME280;75880;41.476;22.164;2024-01-25T10:30:38;100994.22;;;4.64;73.24
85476;BME280;75880;41.476;22.164;2024-01-25T10:33:04;100988.75;;;4.74;73.13
85476;BME280;75880;41.476;22.164;2024-01-25T10:35:31;100968.63;;;4.80;73.14
85476;BME280;75880;41.476;22.164;2024-01-25T10:37:57;100961.91;;;5.06;72.83
85476;BME280;75880;41.476;22.164;2024-01-25T10:40:23;100959.31;;;5.20;67.96
85476;BME280;75880;41.476;22.164;2024-01-25T10:42:49;100975.31;;;5.45;66.57
85476;BME280;75880;41.476;22.164;2024-01-25T10:45:15;100965.25;;;5.50;67.38
85476;BME280;75880;41.476;22.164;2024-01-25T10:47:41;100971.31;;;5.42;69.47
85476;BME280;75880;41.476;22.164;2024-01-25T10:50:08;100972.97;;;5.38;67.76
85476;BME280;75880;41.476;22.164;2024-01-25T10:52:35;100969.72;;;5.36;69.46
85476;BME280;75880;41.476;22.164;2024-01-25T10:55:01;100953.19;;;5.38;71.78
85476;BME280;75880;41.476;22.164;2024-01-25T10:57:35;100955.41;;;5.54;68.08
85476;BME280;75880;41.476;22.164;2024-01-25T11:00:06;100939.63;;;5.56;69.73
85476;BME280;75880;41.476;22.164;2024-01-25T11:02:35;100928.09;;;5.69;67.86
85476;BME280;75880;41.476;22.164;2024-01-25T11:05:00;100911.78;;;5.69;70.29
85476;BME280;75880;41.476;22.164;2024-01-25T11:07:28;100900.59;;;5.76;67.56
85476;BME280;75880;41.476;22.164;2024-01-25T11:09:53;100897.22;;;5.65;68.01
85476;BME280;75880;41.476;22.164;2024-01-25T11:12:20;100908.81;;;5.71;66.78
85476;BME280;75880;41.476;22.164;2024-01-25T11:14:45;100928.69;;;5.66;66.94
85476;BME280;75880;41.476;22.164;2024-01-25T11:17:21;100927.72;;;5.57;67.08
85476;BME280;75880;41.476;22.164;2024-01-25T11:19:50;100929.97;;;5.50;65.93
85476;BME280;75880;41.476;22.164;2024-01-25T11:22:16;100919.06;;;5.32;68.44
85476;BME280;75880;41.476;22.164;2024-01-25T11:24:42;100929.03;;;5.36;66.82
85476;BME280;75880;41.476;22.164;2024-01-25T11:27:09;100921.63;;;5.42;67.60
85476;BME280;75880;41.476;22.164;2024-01-25T11:29:36;100915.06;;;5.48;67.27
85476;BME280;75880;41.476;22.164;2024-01-25T11:32:04;100903.28;;;5.57;66.68
85476;BME280;75880;41.476;22.164;2024-01-25T11:34:30;100908.28;;;5.69;66.96
85476;BME280;75880;41.476;22.164;2024-01-25T11:36:57;100905.09;;;5.85;66.93
85476;BME280;75880;41.476;22.164;2024-01-25T11:39:26;100908.03;;;5.89;65.92
85476;BME280;75880;41.476;22.164;2024-01-25T11:41:51;100901.59;;;6.03;65.30
85476;BME280;75880;41.476;22.164;2024-01-25T11:44:17;100906.09;;;5.94;65.83
85476;BME280;75880;41.476;22.164;2024-01-25T11:46:43;100899.53;;;5.95;65.64
85476;BME280;75880;41.476;22.164;2024-01-25T11:49:09;100920.38;;;6.00;65.84
85476;BME280;75880;41.476;22.164;2024-01-25T11:51:34;100915.53;;;5.97;66.50
85476;BME280;75880;41.476;22.164;2024-01-25T11:54:00;100889.41;;;5.82;66.13
85476;BME280;75880;41.476;22.164;2024-01-25T11:56:37;100894.19;;;5.67;68.51
85476;BME280;75880;41.476;22.164;2024-01-25T11:59:07;100887.28;;;5.56;68.33
85476;BME280;75880;41.476;22.164;2024-01-25T12:01:33;100884.78;;;5.59;69.05
85476;BME280;75880;41.476;22.164;2024-01-25T12:03:59;100892.53;;;5.47;70.76
85476;BME280;75880;41.476;22.164;2024-01-25T12:06:26;100893.50;;;5.56;70.43
85476;BME280;75880;41.476;22.164;2024-01-25T12:08:52;100885.34;;;5.56;69.32
85476;BME280;75880;41.476;22.164;2024-01-25T12:11:18;100902.47;;;5.57;68.32
85476;BME280;75880;41.476;22.164;2024-01-25T12:13:44;100916.78;;;5.62;68.63
85476;BME280;75880;41.476;22.164;2024-01-25T12:16:11;100912.94;;;5.63;68.14
85476;BME280;75880;41.476;22.164;2024-01-25T12:18:38;100922.28;;;5.57;69.33
85476;BME280;75880;41.476;22.164;2024-01-25T12:21:05;100915.28;;;5.51;68.82
85476;BME280;75880;41.476;22.164;2024-01-25T12:23:35;100911.53;;;5.47;69.21
85476;BME280;75880;41.476;22.164;2024-01-25T12:26:01;100898.78;;;5.48;69.46
85476;BME280;75880;41.476;22.164;2024-01-25T12:28:28;100892.06;;;5.40;71.53
85476;BME280;75880;41.476;22.164;2024-01-25T12:30:55;100902.41;;;5.38;71.80
85476;BME280;75880;41.476;22.164;2024-01-25T12:33:20;100907.88;;;5.33;72.33
85476;BME280;75880;41.476;22.164;2024-01-25T12:35:46;100907.44;;;5.26;72.34
85476;BME280;75880;41.476;22.164;2024-01-25T12:38:12;100915.50;;;5.31;72.05
85476;BME280;75880;41.476;22.164;2024-01-25T12:40:37;100916.56;;;5.35;71.65
85476;BME280;75880;41.476;22.164;2024-01-25T12:43:03;100910.19;;;5.45;73.65